TAF

Aerodrome Forecast TAF

TAF description (Slovak)

29.05.2016 - 02:00 UTC

TAF LZSL 290200Z 2903/2912 05005KT 9999 FEW060 BKN090
    BECMG 2908/2910 13007KT FEW063=
TAF LZZI 290200Z 2903/2912 09004KT 9999 FEW050 BKN090
    PROB30 TEMPO 2903/2906 07008KT -SHRA FEW050TCU BKN080
    BECMG 2910/2912 08007KT FEW055=

29.05.2016 - 02:00 UTC

TAF LZSL 290200Z 2903/2912 05005KT 9999 FEW060 BKN090
    BECMG 2908/2910 13007KT FEW063=
TAF LZZI 290200Z 2903/2912 09004KT 9999 FEW050 BKN090
    PROB30 TEMPO 2903/2906 07008KT -SHRA FEW050TCU BKN080
    BECMG 2910/2912 08007KT FEW055=

28.05.2016 - 23:00 UTC (Včera)

TAF LZSL 282300Z 2900/2909 05004KT CAVOK
    BECMG 2901/2903 9999 SCT050 BKN090=
TAF LZZI 282300Z 2900/2909 08003KT CAVOK
    BECMG 2901/2903 9999 FEW050 BKN090
    PROB30 TEMPO 2902/2905 07008KT -SHRA FEW050TCU BKN080=

28.05.2016 - 23:00 UTC (Včera)

TAF LZIB 282300Z 2900/2924 11008KT CAVOK
    PROB30 TEMPO 2900/2904 9999 -SHRA FEW040TCU BKN055
    BECMG 2906/2908 16012KT
    TEMPO 2909/2916 16015G25KT 9999 SCT040
    PROB30 TEMPO 2920/2924 6000 TSRA FEW040CB BKN050=
TAF LZKZ 282300Z 2900/2924 04005KT CAVOK
    TEMPO 2909/2918 9999 SCT040
    PROB30 TEMPO 2912/2918 16015KT -SHRA SCT045TCU BKN050=
TAF LZTT 282300Z 2900/2924 25004KT CAVOK
    PROB30 TEMPO 2902/2906 4000 MIFG SCT005
    BECMG 2906/2908 14006KT 9999 SCT060
    PROB30 TEMPO 2912/2919 33012KT -SHRA SCT050TCU BKN060
    BECMG 2920/2922 27004KT CAVOK=

skok na menu ↑


skok na začiatok stránky ↑